sensor_id;sensor_type;location;lat;lon;timestamp;pressure;altitude;pressure_sealevel;temperature;humidity
25947;BME280;13745;51.470;9.894;2023-04-01T00:00:14;97349.28;;;14.45;68.10
25947;BME280;13745;51.470;9.894;2023-04-01T00:02:59;97350.19;;;14.44;68.02
25947;BME280;13745;51.470;9.894;2023-04-01T00:05:45;97356.31;;;14.43;68.04
25947;BME280;13745;51.470;9.894;2023-04-01T00:08:32;97352.03;;;14.42;68.12
25947;BME280;13745;51.470;9.894;2023-04-01T00:11:18;97356.44;;;14.42;68.14
25947;BME280;13745;51.470;9.894;2023-04-01T00:14:03;97353.91;;;14.40;68.12
25947;BME280;13745;51.470;9.894;2023-04-01T00:16:48;97346.09;;;14.40;68.03
25947;BME280;13745;51.470;9.894;2023-04-01T00:19:33;97346.25;;;14.37;68.20
25947;BME280;13745;51.470;9.894;2023-04-01T00:22:18;97345.34;;;14.38;68.27
25947;BME280;13745;51.470;9.894;2023-04-01T00:25:06;97335.00;;;14.37;68.29
25947;BME280;13745;51.470;9.894;2023-04-01T00:27:52;97341.16;;;14.36;68.03
25947;BME280;13745;51.470;9.894;2023-04-01T00:30:37;97343.88;;;14.34;68.50
25947;BME280;13745;51.470;9.894;2023-04-01T00:33:23;97339.59;;;14.33;68.25
25947;BME280;13745;51.470;9.894;2023-04-01T00:36:10;97340.59;;;14.30;68.49
25947;BME280;13745;51.470;9.894;2023-04-01T00:38:57;97338.91;;;14.29;68.39
25947;BME280;13745;51.470;9.894;2023-04-01T00:41:44;97338.09;;;14.29;68.88
25947;BME280;13745;51.470;9.894;2023-04-01T00:44:31;97340.69;;;14.29;68.55
25947;BME280;13745;51.470;9.894;2023-04-01T00:47:17;97335.56;;;14.27;68.75
25947;BME280;13745;51.470;9.894;2023-04-01T00:50:03;97342.56;;;14.27;68.52
25947;BME280;13745;51.470;9.894;2023-04-01T00:52:48;97339.22;;;14.25;68.71
25947;BME280;13745;51.470;9.894;2023-04-01T00:55:35;97331.50;;;14.23;68.30
25947;BME280;13745;51.470;9.894;2023-04-01T00:58:25;97341.06;;;14.23;68.65
25947;BME280;13745;51.470;9.894;2023-04-01T01:01:12;97342.81;;;14.22;68.48
25947;BME280;13745;51.470;9.894;2023-04-01T01:03:57;97336.78;;;14.22;68.56
25947;BME280;13745;51.470;9.894;2023-04-01T01:06:46;97329.91;;;14.21;68.64
25947;BME280;13745;51.470;9.894;2023-04-01T01:09:42;97333.22;;;14.23;68.38
25947;BME280;13745;51.470;9.894;2023-04-01T01:12:37;97332.59;;;14.19;68.49
25947;BME280;13745;51.470;9.894;2023-04-01T01:15:27;97330.94;;;14.18;68.44
25947;BME280;13745;51.470;9.894;2023-04-01T01:18:19;97337.06;;;14.17;68.55
25947;BME280;13745;51.470;9.894;2023-04-01T01:21:47;97331.75;;;14.19;68.47
25947;BME280;13745;51.470;9.894;2023-04-01T01:24:50;97331.13;;;14.15;68.64
25947;BME280;13745;51.470;9.894;2023-04-01T01:27:39;97332.88;;;14.15;68.64
25947;BME280;13745;51.470;9.894;2023-04-01T01:30:39;97328.53;;;14.15;68.43
25947;BME280;13745;51.470;9.894;2023-04-01T01:33:41;97334.63;;;14.14;68.86
25947;BME280;13745;51.470;9.894;2023-04-01T01:36:32;97336.41;;;14.14;68.53
25947;BME280;13745;51.470;9.894;2023-04-01T01:39:19;97328.78;;;14.11;68.57
25947;BME280;13745;51.470;9.894;2023-04-01T01:42:14;97328.78;;;14.11;68.58
25947;BME280;13745;51.470;9.894;2023-04-01T01:45:03;97335.78;;;14.10;68.49
25947;BME280;13745;51.470;9.894;2023-04-01T01:47:49;97331.50;;;14.09;68.60
25947;BME280;13745;51.470;9.894;2023-04-01T01:50:36;97331.59;;;14.08;68.77
25947;BME280;13745;51.470;9.894;2023-04-01T01:53:24;97332.50;;;14.06;68.57
25947;BME280;13745;51.470;9.894;2023-04-01T01:56:10;97333.44;;;14.05;68.41
25947;BME280;13745;51.470;9.894;2023-04-01T01:59:00;97326.38;;;14.08;68.83
25947;BME280;13745;51.470;9.894;2023-04-01T02:01:49;97339.47;;;14.06;68.37
25947;BME280;13745;51.470;9.894;2023-04-01T02:04:36;97326.44;;;14.06;68.76
25947;BME280;13745;51.470;9.894;2023-04-01T02:07:26;97334.34;;;14.04;68.70
25947;BME280;13745;51.470;9.894;2023-04-01T02:10:15;97336.97;;;14.04;68.78
25947;BME280;13745;51.470;9.894;2023-04-01T02:13:05;97334.56;;;14.01;68.88
25947;BME280;13745;51.470;9.894;2023-04-01T02:15:55;97331.03;;;14.02;68.80
25947;BME280;13745;51.470;9.894;2023-04-01T02:18:42;97331.94;;;14.01;69.34
25947;BME280;13745;51.470;9.894;2023-04-01T02:21:31;97337.06;;;14.03;68.90
25947;BME280;13745;51.470;9.894;2023-04-01T02:24:17;97334.66;;;14.00;69.14
25947;BME280;13745;51.470;9.894;2023-04-01T02:27:06;97335.59;;;13.99;69.11
25947;BME280;13745;51.470;9.894;2023-04-01T02:29:52;97341.63;;;13.99;69.25
25947;BME280;13745;51.470;9.894;2023-04-01T02:32:38;97333.06;;;13.97;69.18
25947;BME280;13745;51.470;9.894;2023-04-01T02:35:24;97334.75;;;13.98;69.27
25947;BME280;13745;51.470;9.894;2023-04-01T02:38:10;97326.16;;;13.96;69.00
25947;BME280;13745;51.470;9.894;2023-04-01T02:40:58;97332.31;;;13.95;69.10
25947;BME280;13745;51.470;9.894;2023-04-01T02:43:44;97336.69;;;13.95;69.08
25947;BME280;13745;51.470;9.894;2023-04-01T02:46:29;97339.28;;;13.95;68.90
25947;BME280;13745;51.470;9.894;2023-04-01T02:49:14;97337.63;;;13.94;69.08
25947;BME280;13745;51.470;9.894;2023-04-01T02:51:59;97339.28;;;13.95;69.05
25947;BME280;13745;51.470;9.894;2023-04-01T02:54:44;97336.69;;;13.95;69.23
25947;BME280;13745;51.470;9.894;2023-04-01T02:57:29;97338.34;;;13.96;69.44
25947;BME280;13745;51.470;9.894;2023-04-01T03:00:17;97338.47;;;13.94;69.33
25947;BME280;13745;51.470;9.894;2023-04-01T03:03:02;97347.84;;;13.97;69.20
25947;BME280;13745;51.470;9.894;2023-04-01T03:05:48;97335.84;;;13.94;69.16
25947;BME280;13745;51.470;9.894;2023-04-01T03:08:33;97341.06;;;13.94;69.15
25947;BME280;13745;51.470;9.894;2023-04-01T03:11:19;97343.56;;;13.96;69.10
25947;BME280;13745;51.470;9.894;2023-04-01T03:14:04;97340.13;;;13.95;69.24
25947;BME280;13745;51.470;9.894;2023-04-01T03:16:52;97335.03;;;13.94;69.02
25947;BME280;13745;51.470;9.894;2023-04-01T03:19:37;97337.53;;;13.95;69.01
25947;BME280;13745;51.470;9.894;2023-04-01T03:22:26;97335.84;;;13.94;69.06
25947;BME280;13745;51.470;9.894;2023-04-01T03:25:11;97335.84;;;13.94;68.87
25947;BME280;13745;51.470;9.894;2023-04-01T03:27:56;97342.00;;;13.93;68.88
25947;BME280;13745;51.470;9.894;2023-04-01T03:30:43;97335.94;;;13.93;68.73
25947;BME280;13745;51.470;9.894;2023-04-01T03:33:30;97339.50;;;13.92;68.68
25947;BME280;13745;51.470;9.894;2023-04-01T03:36:15;97350.75;;;13.92;68.63
25947;BME280;13745;51.470;9.894;2023-04-01T03:39:00;97337.81;;;13.91;68.80
25947;BME280;13745;51.470;9.894;2023-04-01T03:41:54;97338.56;;;13.93;68.58
25947;BME280;13745;51.470;9.894;2023-04-01T03:44:39;97351.56;;;13.93;68.39
25947;BME280;13745;51.470;9.894;2023-04-01T03:47:27;97348.13;;;13.92;68.49
25947;BME280;13745;51.470;9.894;2023-04-01T03:50:14;97344.69;;;13.92;68.83
25947;BME280;13745;51.470;9.894;2023-04-01T03:52:59;97351.47;;;13.94;68.97
25947;BME280;13745;51.470;9.894;2023-04-01T03:55:44;97345.53;;;13.92;68.72
25947;BME280;13745;51.470;9.894;2023-04-01T03:58:30;97346.47;;;13.91;68.79
25947;BME280;13745;51.470;9.894;2023-04-01T04:01:17;97356.13;;;13.89;69.01
25947;BME280;13745;51.470;9.894;2023-04-01T04:04:05;97356.94;;;13.90;68.94
25947;BME280;13745;51.470;9.894;2023-04-01T04:06:52;97350.25;;;13.86;68.76
25947;BME280;13745;51.470;9.894;2023-04-01T04:09:39;97351.09;;;13.86;68.73
25947;BME280;13745;51.470;9.894;2023-04-01T04:12:24;97352.88;;;13.86;68.78
25947;BME280;13745;51.470;9.894;2023-04-01T04:15:09;97356.41;;;13.85;68.96
25947;BME280;13745;51.470;9.894;2023-04-01T04:17:55;97358.28;;;13.83;69.02
25947;BME280;13745;51.470;9.894;2023-04-01T04:20:43;97359.28;;;13.80;69.08
25947;BME280;13745;51.470;9.894;2023-04-01T04:23:32;97352.47;;;13.77;69.15
25947;BME280;13745;51.470;9.894;2023-04-01T04:26:17;97358.63;;;13.76;69.22
25947;BME280;13745;51.470;9.894;2023-04-01T04:29:10;97349.97;;;13.76;69.15
25947;BME280;13745;51.470;9.894;2023-04-01T04:31:56;97361.38;;;13.73;69.16
25947;BME280;13745;51.470;9.894;2023-04-01T04:34:41;97356.19;;;13.73;69.35
25947;BME280;13745;51.470;9.894;2023-04-01T04:37:26;97357.13;;;13.72;69.37
25947;BME280;13745;51.470;9.894;2023-04-01T04:40:12;97361.47;;;13.72;69.15
25947;BME280;13745;51.470;9.894;2023-04-01T04:42:59;97365.94;;;13.70;69.41
25947;BME280;13745;51.470;9.894;2023-04-01T04:45:44;97354.59;;;13.71;69.36
25947;BME280;13745;51.470;9.894;2023-04-01T04:48:30;97364.19;;;13.70;69.25
25947;BME280;13745;51.470;9.894;2023-04-01T04:51:15;97353.78;;;13.70;69.43
25947;BME280;13745;51.470;9.894;2023-04-01T04:54:01;97363.34;;;13.70;69.30
25947;BME280;13745;51.470;9.894;2023-04-01T04:57:01;97364.19;;;13.70;69.25
25947;BME280;13745;51.470;9.894;2023-04-01T04:59:50;97370.31;;;13.69;69.18
25947;BME280;13745;51.470;9.894;2023-04-01T05:02:55;97370.31;;;13.69;69.21
25947;BME280;13745;51.470;9.894;2023-04-01T05:05:48;97369.59;;;13.67;69.49
25947;BME280;13745;51.470;9.894;2023-04-01T05:08:34;97360.94;;;13.81;69.02
25947;BME280;13745;51.470;9.894;2023-04-01T05:11:19;97378.13;;;13.69;69.39
25947;BME280;13745;51.470;9.894;2023-04-01T05:14:12;97375.72;;;13.66;69.42
25947;BME280;13745;51.470;9.894;2023-04-01T05:16:58;97373.84;;;13.68;69.44
25947;BME280;13745;51.470;9.894;2023-04-01T05:19:43;97376.38;;;13.70;69.54
25947;BME280;13745;51.470;9.894;2023-04-01T05:22:28;97379.81;;;13.70;69.18
25947;BME280;13745;51.470;9.894;2023-04-01T05:25:14;97378.03;;;13.71;69.38
25947;BME280;13745;51.470;9.894;2023-04-01T05:27:59;97383.16;;;13.72;69.38
25947;BME280;13745;51.470;9.894;2023-04-01T05:30:46;97383.16;;;13.72;69.24
25947;BME280;13745;51.470;9.894;2023-04-01T05:33:48;97378.63;;;13.76;69.32
25947;BME280;13745;51.470;9.894;2023-04-01T05:36:33;97389.88;;;13.76;69.22
25947;BME280;13745;51.470;9.894;2023-04-01T05:39:19;97383.81;;;13.76;69.44
25947;BME280;13745;51.470;9.894;2023-04-01T05:42:05;97385.50;;;13.77;69.38
25947;BME280;13745;51.470;9.894;2023-04-01T05:44:51;97387.28;;;13.76;69.27
25947;BME280;13745;51.470;9.894;2023-04-01T05:47:56;97379.34;;;13.78;69.28
25947;BME280;13745;51.470;9.894;2023-04-01T05:50:41;97392.28;;;13.80;69.04
25947;BME280;13745;51.470;9.894;2023-04-01T05:53:27;97383.53;;;13.81;69.13
25947;BME280;13745;51.470;9.894;2023-04-01T05:56:12;97384.38;;;13.81;68.98
25947;BME280;13745;51.470;9.894;2023-04-01T05:59:03;97392.97;;;13.83;68.99
25947;BME280;13745;51.470;9.894;2023-04-01T06:01:48;97389.31;;;13.86;68.86
25947;BME280;13745;51.470;9.894;2023-04-01T06:04:37;97387.56;;;13.86;68.91
25947;BME280;13745;51.470;9.894;2023-04-01T06:07:23;97393.41;;;13.90;68.94
25947;BME280;13745;51.470;9.894;2023-04-01T06:10:12;97393.50;;;13.88;69.20
25947;BME280;13745;51.470;9.894;2023-04-01T06:13:03;97385.53;;;13.91;68.89
25947;BME280;13745;51.470;9.894;2023-04-01T06:15:53;97388.88;;;13.93;68.98
25947;BME280;13745;51.470;9.894;2023-04-01T06:18:50;97393.06;;;13.96;68.95
25947;BME280;13745;51.470;9.894;2023-04-01T06:21:55;97398.84;;;14.01;68.86
25947;BME280;13745;51.470;9.894;2023-04-01T06:24:52;97394.28;;;14.04;68.97
25947;BME280;13745;51.470;9.894;2023-04-01T06:27:57;97396.63;;;14.09;68.73
25947;BME280;13745;51.470;9.894;2023-04-01T06:30:49;97402.56;;;14.11;68.33
25947;BME280;13745;51.470;9.894;2023-04-01T06:33:58;97398.09;;;14.13;68.47
25947;BME280;13745;51.470;9.894;2023-04-01T06:37:10;97399.72;;;14.16;68.87
25947;BME280;13745;51.470;9.894;2023-04-01T06:40:15;97397.00;;;14.17;68.83
25947;BME280;13745;51.470;9.894;2023-04-01T06:43:10;97403.88;;;14.18;68.82
25947;BME280;13745;51.470;9.894;2023-04-01T06:46:30;97404.53;;;14.22;68.77
25947;BME280;13745;51.470;9.894;2023-04-01T06:49:46;97405.31;;;14.24;68.49
25947;BME280;13745;51.470;9.894;2023-04-01T06:53:00;97405.00;;;14.28;68.45
25947;BME280;13745;51.470;9.894;2023-04-01T06:56:10;97407.72;;;14.27;68.12
25947;BME280;13745;51.470;9.894;2023-04-01T06:59:11;97408.66;;;14.26;68.37
25947;BME280;13745;51.470;9.894;2023-04-01T07:02:00;97407.63;;;14.28;68.34
25947;BME280;13745;51.470;9.894;2023-04-01T07:04:48;97416.09;;;14.32;68.23
25947;BME280;13745;51.470;9.894;2023-04-01T07:07:38;97416.84;;;14.34;68.31
25947;BME280;13745;51.470;9.894;2023-04-01T07:10:34;97415.59;;;14.40;68.26
25947;BME280;13745;51.470;9.894;2023-04-01T07:13:45;97407.88;;;14.38;68.32
25947;BME280;13745;51.470;9.894;2023-04-01T07:16:37;97412.84;;;14.43;68.21
25947;BME280;13745;51.470;9.894;2023-04-01T07:19:26;97417.88;;;14.46;68.03
25947;BME280;13745;51.470;9.894;2023-04-01T07:22:26;97415.84;;;14.51;68.05
25947;BME280;13745;51.470;9.894;2023-04-01T07:25:27;97415.75;;;14.67;67.86
25947;BME280;13745;51.470;9.894;2023-04-01T07:28:33;97411.38;;;14.53;68.24
25947;BME280;13745;51.470;9.894;2023-04-01T07:31:54;97418.25;;;14.54;68.20
25947;BME280;13745;51.470;9.894;2023-04-01T07:34:51;97424.03;;;14.59;68.13
25947;BME280;13745;51.470;9.894;2023-04-01T07:37:48;97429.16;;;14.60;68.04
25947;BME280;13745;51.470;9.894;2023-04-01T07:40:42;97432.59;;;14.61;67.54
25947;BME280;13745;51.470;9.894;2023-04-01T07:46:56;97431.66;;;14.62;68.03
25947;BME280;13745;51.470;9.894;2023-04-01T07:49:50;97428.41;;;14.58;67.64
25947;BME280;13745;51.470;9.894;2023-04-01T07:52:44;97425.63;;;14.61;67.66
25947;BME280;13745;51.470;9.894;2023-04-01T07:55:43;97434.09;;;14.65;67.53
25947;BME280;13745;51.470;9.894;2023-04-01T07:58:37;97433.06;;;14.68;67.61
25947;BME280;13745;51.470;9.894;2023-04-01T08:01:34;97435.47;;;14.71;67.49
25947;BME280;13745;51.470;9.894;2023-04-01T08:04:36;97434.53;;;14.72;67.51
25947;BME280;13745;51.470;9.894;2023-04-01T08:07:31;97439.50;;;14.76;67.17
25947;BME280;13745;51.470;9.894;2023-04-01T08:10:47;97436.78;;;14.78;67.17
25947;BME280;13745;51.470;9.894;2023-04-01T08:13:51;97449.91;;;14.76;67.08
25947;BME280;13745;51.470;9.894;2023-04-01T08:16:52;97452.34;;;14.79;67.20
25947;BME280;13745;51.470;9.894;2023-04-01T08:20:08;97464.28;;;14.83;67.35
25947;BME280;13745;51.470;9.894;2023-04-01T08:22:58;97451.97;;;14.85;67.13
25947;BME280;13745;51.470;9.894;2023-04-01T08:25:54;97456.91;;;14.90;67.38
25947;BME280;13745;51.470;9.894;2023-04-01T08:28:46;97460.06;;;14.95;67.56
25947;BME280;13745;51.470;9.894;2023-04-01T08:31:37;97461.34;;;15.02;67.33
25947;BME280;13745;51.470;9.894;2023-04-01T08:34:27;97467.88;;;15.09;67.55
25947;BME280;13745;51.470;9.894;2023-04-01T08:37:21;97475.31;;;15.15;67.10
25947;BME280;13745;51.470;9.894;2023-04-01T08:40:35;97463.56;;;15.23;67.24
25947;BME280;13745;51.470;9.894;2023-04-01T08:43:45;97469.88;;;15.33;67.44
25947;BME280;13745;51.470;9.894;2023-04-01T08:46:47;97470.84;;;15.44;67.47
25947;BME280;13745;51.470;9.894;2023-04-01T08:50:12;97473.63;;;15.56;67.39
25947;BME280;13745;51.470;9.894;2023-04-01T08:53:30;97469.69;;;15.63;67.21
25947;BME280;13745;51.470;9.894;2023-04-01T08:56:26;97472.84;;;15.68;66.92
25947;BME280;13745;51.470;9.894;2023-04-01T08:59:35;97469.66;;;15.77;67.19
25947;BME280;13745;51.470;9.894;2023-04-01T09:02:57;97470.41;;;15.92;67.24
25947;BME280;13745;51.470;9.894;2023-04-01T09:06:11;97477.25;;;16.07;66.77
25947;BME280;13745;51.470;9.894;2023-04-01T09:09:23;97476.53;;;16.18;66.82
25947;BME280;13745;51.470;9.894;2023-04-01T09:12:19;97477.19;;;16.34;66.51
25947;BME280;13745;51.470;9.894;2023-04-01T09:15:20;97486.47;;;16.25;66.43
25947;BME280;13745;51.470;9.894;2023-04-01T09:18:26;97478.53;;;16.27;66.11
25947;BME280;13745;51.470;9.894;2023-04-01T09:21:23;97481.88;;;16.29;65.81
25947;BME280;13745;51.470;9.894;2023-04-01T09:24:35;97479.91;;;16.33;65.96
25947;BME280;13745;51.470;9.894;2023-04-01T09:27:27;97484.28;;;16.32;65.63
25947;BME280;13745;51.470;9.894;2023-04-01T09:30:32;97489.09;;;16.38;65.78
25947;BME280;13745;51.470;9.894;2023-04-01T09:33:43;97483.88;;;16.51;65.58
25947;BME280;13745;51.470;9.894;2023-04-01T09:36:44;97484.72;;;16.64;65.26
25947;BME280;13745;51.470;9.894;2023-04-01T09:39:36;97498.47;;;16.80;65.38
25947;BME280;13745;51.470;9.894;2023-04-01T09:42:42;97490.34;;;16.96;65.09
25947;BME280;13745;51.470;9.894;2023-04-01T09:45:42;97490.66;;;17.04;64.59
25947;BME280;13745;51.470;9.894;2023-04-01T09:48:46;97492.13;;;17.08;64.38
25947;BME280;13745;51.470;9.894;2023-04-01T09:51:37;97498.72;;;17.14;64.12
25947;BME280;13745;51.470;9.894;2023-04-01T09:54:38;97495.06;;;17.17;64.09
25947;BME280;13745;51.470;9.894;2023-04-01T09:57:48;97494.22;;;17.16;64.00
25947;BME280;13745;51.470;9.894;2023-04-01T10:01:34;97495.88;;;17.17;63.86
25947;BME280;13745;51.470;9.894;2023-04-01T10:05:04;97504.69;;;17.16;63.94
25947;BME280;13745;51.470;9.894;2023-04-01T10:08:14;97510.75;;;17.17;63.66
25947;BME280;13745;51.470;9.894;2023-04-01T10:14:46;97507.59;;;17.24;63.55
25947;BME280;13745;51.470;9.894;2023-04-01T10:17:59;97515.03;;;17.30;63.39
25947;BME280;13745;51.470;9.894;2023-04-01T10:20:59;97509.06;;;17.28;63.11
25947;BME280;13745;51.470;9.894;2023-04-01T10:24:09;97514.19;;;17.30;63.25
25947;BME280;13745;51.470;9.894;2023-04-01T10:27:21;97508.03;;;17.31;63.22
25947;BME280;13745;51.470;9.894;2023-04-01T10:30:36;97509.81;;;17.30;63.10
25947;BME280;13745;51.470;9.894;2023-04-01T10:33:51;97510.13;;;17.26;63.10
25947;BME280;13745;51.470;9.894;2023-04-01T10:36:50;97510.66;;;17.18;62.47
25947;BME280;13745;51.470;9.894;2023-04-01T10:40:12;97513.69;;;17.12;62.76
25947;BME280;13745;51.470;9.894;2023-04-01T10:47:26;97517.94;;;16.89;63.04
25947;BME280;13745;51.470;9.894;2023-04-01T10:50:51;97515.63;;;16.84;63.48
25947;BME280;13745;51.470;9.894;2023-04-01T10:53:47;97517.91;;;16.76;63.40
25947;BME280;13745;51.470;9.894;2023-04-01T10:56:52;97524.41;;;16.71;63.98
25947;BME280;13745;51.470;9.894;2023-04-01T11:00:14;97529.44;;;16.74;64.45
25947;BME280;13745;51.470;9.894;2023-04-01T11:03:57;97525.66;;;16.91;64.41
25947;BME280;13745;51.470;9.894;2023-04-01T11:07:43;97524.91;;;17.14;64.74
25947;BME280;13745;51.470;9.894;2023-04-01T11:17:42;97527.66;;;17.49;64.34
25947;BME280;13745;51.470;9.894;2023-04-01T11:20:53;97536.75;;;17.56;64.02
25947;BME280;13745;51.470;9.894;2023-04-01T11:24:09;97529.50;;;17.60;63.78
25947;BME280;13745;51.470;9.894;2023-04-01T11:27:21;97533.91;;;17.59;63.37
25947;BME280;13745;51.470;9.894;2023-04-01T11:30:20;97534.84;;;17.58;63.13
25947;BME280;13745;51.470;9.894;2023-04-01T11:33:14;97536.03;;;17.54;63.07
25947;BME280;13745;51.470;9.894;2023-04-01T11:36:11;97534.44;;;17.52;63.21
25947;BME280;13745;51.470;9.894;2023-04-01T11:39:16;97535.63;;;17.48;63.43
25947;BME280;13745;51.470;9.894;2023-04-01T11:42:30;97538.69;;;17.41;63.41
25947;BME280;13745;51.470;9.894;2023-04-01T11:45:41;97549.38;;;17.38;63.46
25947;BME280;13745;51.470;9.894;2023-04-01T11:48:50;97541.84;;;17.34;63.84
25947;BME280;13745;51.470;9.894;2023-04-01T11:51:51;97550.41;;;17.36;64.04
25947;BME280;13745;51.470;9.894;2023-04-01T11:54:53;97549.59;;;17.35;63.85
25947;BME280;13745;51.470;9.894;2023-04-01T11:57:59;97554.94;;;17.34;63.83
25947;BME280;13745;51.470;9.894;2023-04-01T12:00:58;97554.09;;;17.33;63.94
25947;BME280;13745;51.470;9.894;2023-04-01T12:04:04;97559.09;;;17.36;64.49
25947;BME280;13745;51.470;9.894;2023-04-01T12:06:54;97555.66;;;17.36;64.35
25947;BME280;13745;51.470;9.894;2023-04-01T12:09:49;97558.91;;;17.39;64.45
25947;BME280;13745;51.470;9.894;2023-04-01T12:12:42;97568.09;;;17.45;64.63
25947;BME280;13745;51.470;9.894;2023-04-01T12:15:39;97566.00;;;17.50;64.11
25947;BME280;13745;51.470;9.894;2023-04-01T12:18:37;97566.84;;;17.51;64.07
25947;BME280;13745;51.470;9.894;2023-04-01T12:21:28;97565.78;;;17.53;64.07
25947;BME280;13745;51.470;9.894;2023-04-01T12:24:40;97572.16;;;17.62;64.15
25947;BME280;13745;51.470;9.894;2023-04-01T12:27:40;97569.94;;;17.68;64.19
25947;BME280;13745;51.470;9.894;2023-04-01T12:30:34;97571.44;;;17.73;64.32
25947;BME280;13745;51.470;9.894;2023-04-01T12:33:51;97572.03;;;17.76;64.78
25947;BME280;13745;51.470;9.894;2023-04-01T12:36:53;97573.72;;;17.77;65.02
25947;BME280;13745;51.470;9.894;2023-04-01T12:40:01;97570.25;;;17.77;64.22
25947;BME280;13745;51.470;9.894;2023-04-01T12:42:59;97576.84;;;17.69;64.36
25947;BME280;13745;51.470;9.894;2023-04-01T12:45:53;97580.84;;;17.62;64.15
25947;BME280;13745;51.470;9.894;2023-04-01T12:48:57;97580.47;;;17.56;64.61
25947;BME280;13745;51.470;9.894;2023-04-01T12:51:58;97577.44;;;17.49;64.56
25947;BME280;13745;51.470;9.894;2023-04-01T12:58:59;97582.19;;;17.31;64.89
25947;BME280;13745;51.470;9.894;2023-04-01T13:02:01;97591.63;;;17.21;65.40
25947;BME280;13745;51.470;9.894;2023-04-01T13:05:18;97592.66;;;17.19;65.52
25947;BME280;13745;51.470;9.894;2023-04-01T13:08:19;97598.41;;;17.11;65.60
25947;BME280;13745;51.470;9.894;2023-04-01T13:11:09;97609.53;;;17.02;65.80
25947;BME280;13745;51.470;9.894;2023-04-01T13:14:11;97602.91;;;16.96;66.29
25947;BME280;13745;51.470;9.894;2023-04-01T13:17:07;97605.53;;;16.96;66.61
25947;BME280;13745;51.470;9.894;2023-04-01T13:19:58;97604.28;;;17.02;66.71
25947;BME280;13745;51.470;9.894;2023-04-01T13:22:56;97618.53;;;17.10;67.06
25947;BME280;13745;51.470;9.894;2023-04-01T13:25:50;97613.19;;;17.25;67.11
25947;BME280;13745;51.470;9.894;2023-04-01T13:28:39;97615.25;;;17.45;66.93
25947;BME280;13745;51.470;9.894;2023-04-01T13:31:36;97611.16;;;17.66;67.20
25947;BME280;13745;51.470;9.894;2023-04-01T13:34:32;97611.44;;;17.87;66.69
25947;BME280;13745;51.470;9.894;2023-04-01T13:37:30;97614.19;;;18.10;66.39
25947;BME280;13745;51.470;9.894;2023-04-01T13:40:33;97610.22;;;18.28;65.71
25947;BME280;13745;51.470;9.894;2023-04-01T13:43:28;97615.00;;;18.34;65.52
25947;BME280;13745;51.470;9.894;2023-04-01T13:46:28;97616.09;;;18.32;65.32
25947;BME280;13745;51.470;9.894;2023-04-01T13:49:37;97617.47;;;18.24;65.23
25947;BME280;13745;51.470;9.894;2023-04-01T13:52:37;97615.66;;;18.14;65.43
25947;BME280;13745;51.470;9.894;2023-04-01T13:55:38;97623.94;;;18.08;65.69
25947;BME280;13745;51.470;9.894;2023-04-01T14:01:59;97628.63;;;17.91;65.34
25947;BME280;13745;51.470;9.894;2023-04-01T14:05:03;97631.66;;;17.85;65.31
25947;BME280;13745;51.470;9.894;2023-04-01T14:08:00;97626.66;;;17.82;65.37
25947;BME280;13745;51.470;9.894;2023-04-01T14:10:59;97625.94;;;17.80;65.55
25947;BME280;13745;51.470;9.894;2023-04-01T14:14:03;97627.38;;;17.84;65.75
25947;BME280;13745;51.470;9.894;2023-04-01T14:17:01;97628.84;;;17.88;65.85
25947;BME280;13745;51.470;9.894;2023-04-01T14:20:00;97633.03;;;17.91;65.58
25947;BME280;13745;51.470;9.894;2023-04-01T14:23:01;97639.94;;;17.92;65.24
25947;BME280;13745;51.470;9.894;2023-04-01T14:26:01;97641.97;;;17.88;64.85
25947;BME280;13745;51.470;9.894;2023-04-01T14:28:56;97650.25;;;17.82;65.06
25947;BME280;13745;51.470;9.894;2023-04-01T14:31:52;97647.31;;;17.74;64.90
25947;BME280;13745;51.470;9.894;2023-04-01T14:34:53;97655.69;;;17.66;64.74
25947;BME280;13745;51.470;9.894;2023-04-01T14:38:04;97650.25;;;17.57;64.55
25947;BME280;13745;51.470;9.894;2023-04-01T14:40:56;97655.19;;;17.49;64.67
25947;BME280;13745;51.470;9.894;2023-04-01T14:44:13;97664.13;;;17.46;64.97
25947;BME280;13745;51.470;9.894;2023-04-01T14:47:11;97656.44;;;17.43;64.99
25947;BME280;13745;51.470;9.894;2023-04-01T14:50:08;97663.25;;;17.46;65.24
25947;BME280;13745;51.470;9.894;2023-04-01T14:52:59;97662.41;;;17.45;65.45
25947;BME280;13745;51.470;9.894;2023-04-01T14:55:49;97663.25;;;17.46;65.15
25947;BME280;13745;51.470;9.894;2023-04-01T14:58:42;97668.72;;;17.42;64.84
25947;BME280;13745;51.470;9.894;2023-04-01T15:01:40;97673.34;;;17.39;65.17
25947;BME280;13745;51.470;9.894;2023-04-01T15:04:45;97682.13;;;17.38;65.15
25947;BME280;13745;51.470;9.894;2023-04-01T15:08:00;97679.72;;;17.35;64.98
25947;BME280;13745;51.470;9.894;2023-04-01T15:11:17;97685.47;;;17.27;65.07
25947;BME280;13745;51.470;9.894;2023-04-01T15:14:19;97687.88;;;17.18;64.73
25947;BME280;13745;51.470;9.894;2023-04-01T15:17:22;97698.69;;;17.13;65.12
25947;BME280;13745;51.470;9.894;2023-04-01T15:20:39;97693.53;;;17.11;65.32
25947;BME280;13745;51.470;9.894;2023-04-01T15:23:45;97700.03;;;17.06;65.33
25947;BME280;13745;51.470;9.894;2023-04-01T15:26:44;97705.56;;;17.01;65.48
25947;BME280;13745;51.470;9.894;2023-04-01T15:29:51;97704.09;;;16.97;65.62
25947;BME280;13745;51.470;9.894;2023-04-01T15:32:53;97710.47;;;16.93;65.35
25947;BME280;13745;51.470;9.894;2023-04-01T15:35:46;97722.91;;;16.90;65.51
25947;BME280;13745;51.470;9.894;2023-04-01T15:38:40;97719.53;;;16.88;65.32
25947;BME280;13745;51.470;9.894;2023-04-01T15:41:35;97726.78;;;16.84;65.54
25947;BME280;13745;51.470;9.894;2023-04-01T15:44:34;97728.84;;;16.79;65.38
25947;BME280;13745;51.470;9.894;2023-04-01T15:47:36;97732.59;;;16.75;65.41
25947;BME280;13745;51.470;9.894;2023-04-01T15:51:01;97739.81;;;16.71;65.64
25947;BME280;13745;51.470;9.894;2023-04-01T15:54:02;97737.47;;;16.67;65.30
25947;BME280;13745;51.470;9.894;2023-04-01T15:57:01;97745.53;;;16.64;65.42
25947;BME280;13745;51.470;9.894;2023-04-01T16:00:02;97746.53;;;16.61;65.74